sensor_id;sensor_type;location;lat;lon;timestamp;temperature;humidity
21331;DHT22;10824;51.632;4.950;2023-04-19T00:01:01;9.50;46.30
21331;DHT22;10824;51.632;4.950;2023-04-19T00:03:28;9.40;46.30
21331;DHT22;10824;51.632;4.950;2023-04-19T00:05:56;9.40;46.30
21331;DHT22;10824;51.632;4.950;2023-04-19T00:08:26;9.40;46.30
21331;DHT22;10824;51.632;4.950;2023-04-19T00:10:53;9.40;46.20
21331;DHT22;10824;51.632;4.950;2023-04-19T00:13:20;9.40;46.20
21331;DHT22;10824;51.632;4.950;2023-04-19T00:15:47;9.30;46.30
21331;DHT22;10824;51.632;4.950;2023-04-19T00:18:15;9.40;46.60
21331;DHT22;10824;51.632;4.950;2023-04-19T00:20:43;9.30;47.10
21331;DHT22;10824;51.632;4.950;2023-04-19T00:23:10;9.30;47.50
21331;DHT22;10824;51.632;4.950;2023-04-19T00:25:37;9.30;47.40
21331;DHT22;10824;51.632;4.950;2023-04-19T00:28:04;9.30;48.00
21331;DHT22;10824;51.632;4.950;2023-04-19T00:30:31;9.40;47.90
21331;DHT22;10824;51.632;4.950;2023-04-19T00:32:58;9.40;48.70
21331;DHT22;10824;51.632;4.950;2023-04-19T00:35:25;9.40;48.80
21331;DHT22;10824;51.632;4.950;2023-04-19T00:37:52;9.50;48.80
21331;DHT22;10824;51.632;4.950;2023-04-19T00:40:19;9.50;48.20
21331;DHT22;10824;51.632;4.950;2023-04-19T00:42:46;9.50;48.90
21331;DHT22;10824;51.632;4.950;2023-04-19T00:45:13;9.60;48.50
21331;DHT22;10824;51.632;4.950;2023-04-19T00:47:40;9.60;48.40
21331;DHT22;10824;51.632;4.950;2023-04-19T00:50:08;9.70;48.10
21331;DHT22;10824;51.632;4.950;2023-04-19T00:52:35;9.70;48.20
21331;DHT22;10824;51.632;4.950;2023-04-19T00:55:03;9.80;48.20
21331;DHT22;10824;51.632;4.950;2023-04-19T00:57:31;9.80;48.60
21331;DHT22;10824;51.632;4.950;2023-04-19T00:59:58;9.80;48.40
21331;DHT22;10824;51.632;4.950;2023-04-19T01:02:25;9.80;48.20
21331;DHT22;10824;51.632;4.950;2023-04-19T01:04:54;9.80;48.10
21331;DHT22;10824;51.632;4.950;2023-04-19T01:07:21;9.90;48.20
21331;DHT22;10824;51.632;4.950;2023-04-19T01:09:48;9.90;48.30
21331;DHT22;10824;51.632;4.950;2023-04-19T01:12:15;9.90;48.60
21331;DHT22;10824;51.632;4.950;2023-04-19T01:14:42;9.90;49.30
21331;DHT22;10824;51.632;4.950;2023-04-19T01:17:10;10.00;49.30
21331;DHT22;10824;51.632;4.950;2023-04-19T01:19:39;10.00;49.30
21331;DHT22;10824;51.632;4.950;2023-04-19T01:22:06;10.00;49.30
21331;DHT22;10824;51.632;4.950;2023-04-19T01:24:36;10.00;49.00
21331;DHT22;10824;51.632;4.950;2023-04-19T01:27:03;10.00;48.60
21331;DHT22;10824;51.632;4.950;2023-04-19T01:29:30;10.00;49.20
21331;DHT22;10824;51.632;4.950;2023-04-19T01:31:57;10.10;50.20
21331;DHT22;10824;51.632;4.950;2023-04-19T01:34:25;10.10;50.10
21331;DHT22;10824;51.632;4.950;2023-04-19T01:36:53;10.10;50.10
21331;DHT22;10824;51.632;4.950;2023-04-19T01:39:20;10.00;50.10
21331;DHT22;10824;51.632;4.950;2023-04-19T01:41:48;10.10;50.60
21331;DHT22;10824;51.632;4.950;2023-04-19T01:44:15;10.10;50.50
21331;DHT22;10824;51.632;4.950;2023-04-19T01:46:42;10.10;51.00
21331;DHT22;10824;51.632;4.950;2023-04-19T01:49:11;10.20;50.50
21331;DHT22;10824;51.632;4.950;2023-04-19T01:51:38;10.20;50.50
21331;DHT22;10824;51.632;4.950;2023-04-19T01:54:05;10.20;50.70
21331;DHT22;10824;51.632;4.950;2023-04-19T01:56:32;10.20;50.30
21331;DHT22;10824;51.632;4.950;2023-04-19T01:59:00;10.20;50.60
21331;DHT22;10824;51.632;4.950;2023-04-19T02:01:29;10.30;51.10
21331;DHT22;10824;51.632;4.950;2023-04-19T02:03:57;10.20;51.10
21331;DHT22;10824;51.632;4.950;2023-04-19T02:06:25;10.30;51.20
21331;DHT22;10824;51.632;4.950;2023-04-19T02:08:52;10.30;50.70
21331;DHT22;10824;51.632;4.950;2023-04-19T02:11:19;10.30;50.60
21331;DHT22;10824;51.632;4.950;2023-04-19T02:13:46;10.30;50.50
21331;DHT22;10824;51.632;4.950;2023-04-19T02:16:13;10.40;51.10
21331;DHT22;10824;51.632;4.950;2023-04-19T02:18:41;10.40;51.00
21331;DHT22;10824;51.632;4.950;2023-04-19T02:21:11;10.40;50.60
21331;DHT22;10824;51.632;4.950;2023-04-19T02:23:39;10.40;51.00
21331;DHT22;10824;51.632;4.950;2023-04-19T02:26:06;10.40;51.70
21331;DHT22;10824;51.632;4.950;2023-04-19T02:28:39;10.40;52.20
21331;DHT22;10824;51.632;4.950;2023-04-19T02:31:07;10.40;51.30
21331;DHT22;10824;51.632;4.950;2023-04-19T02:33:34;10.50;51.70
21331;DHT22;10824;51.632;4.950;2023-04-19T02:36:01;10.50;51.90
21331;DHT22;10824;51.632;4.950;2023-04-19T02:38:28;10.50;52.20
21331;DHT22;10824;51.632;4.950;2023-04-19T02:40:55;10.40;52.40
21331;DHT22;10824;51.632;4.950;2023-04-19T02:43:22;10.40;53.60
21331;DHT22;10824;51.632;4.950;2023-04-19T02:45:50;10.50;53.40
21331;DHT22;10824;51.632;4.950;2023-04-19T02:48:17;10.50;53.60
21331;DHT22;10824;51.632;4.950;2023-04-19T02:50:44;10.50;54.00
21331;DHT22;10824;51.632;4.950;2023-04-19T02:53:11;10.50;54.80
21331;DHT22;10824;51.632;4.950;2023-04-19T02:55:39;10.50;54.60
21331;DHT22;10824;51.632;4.950;2023-04-19T02:58:13;10.50;53.90
21331;DHT22;10824;51.632;4.950;2023-04-19T03:00:49;10.50;53.50
21331;DHT22;10824;51.632;4.950;2023-04-19T03:03:20;10.50;54.10
21331;DHT22;10824;51.632;4.950;2023-04-19T03:05:47;10.40;53.20
21331;DHT22;10824;51.632;4.950;2023-04-19T03:08:14;10.40;53.90
21331;DHT22;10824;51.632;4.950;2023-04-19T03:10:43;10.30;54.20
21331;DHT22;10824;51.632;4.950;2023-04-19T03:13:11;10.30;55.20
21331;DHT22;10824;51.632;4.950;2023-04-19T03:15:38;10.20;54.90
21331;DHT22;10824;51.632;4.950;2023-04-19T03:18:05;10.20;55.40
21331;DHT22;10824;51.632;4.950;2023-04-19T03:20:33;10.20;55.00
21331;DHT22;10824;51.632;4.950;2023-04-19T03:23:00;10.10;54.90
21331;DHT22;10824;51.632;4.950;2023-04-19T03:25:28;10.10;54.80
21331;DHT22;10824;51.632;4.950;2023-04-19T03:28:08;10.10;54.60
21331;DHT22;10824;51.632;4.950;2023-04-19T03:31:10;10.10;54.90
21331;DHT22;10824;51.632;4.950;2023-04-19T03:33:38;10.10;55.50
21331;DHT22;10824;51.632;4.950;2023-04-19T03:36:06;10.10;55.00
21331;DHT22;10824;51.632;4.950;2023-04-19T03:38:34;10.10;54.90
21331;DHT22;10824;51.632;4.950;2023-04-19T03:41:04;10.10;54.90
21331;DHT22;10824;51.632;4.950;2023-04-19T03:43:35;10.10;55.40
21331;DHT22;10824;51.632;4.950;2023-04-19T03:46:02;10.10;54.90
21331;DHT22;10824;51.632;4.950;2023-04-19T03:48:29;10.10;56.70
21331;DHT22;10824;51.632;4.950;2023-04-19T03:50:57;10.10;56.20
21331;DHT22;10824;51.632;4.950;2023-04-19T03:53:24;10.10;56.40
21331;DHT22;10824;51.632;4.950;2023-04-19T03:55:51;10.10;56.50
21331;DHT22;10824;51.632;4.950;2023-04-19T03:58:18;10.00;56.60
21331;DHT22;10824;51.632;4.950;2023-04-19T04:00:52;10.00;56.60
21331;DHT22;10824;51.632;4.950;2023-04-19T04:03:19;10.10;56.90
21331;DHT22;10824;51.632;4.950;2023-04-19T04:05:47;10.00;57.00
21331;DHT22;10824;51.632;4.950;2023-04-19T04:08:14;10.00;56.60
21331;DHT22;10824;51.632;4.950;2023-04-19T04:10:41;10.00;57.00
21331;DHT22;10824;51.632;4.950;2023-04-19T04:13:09;10.00;57.40
21331;DHT22;10824;51.632;4.950;2023-04-19T04:15:44;10.00;57.10
21331;DHT22;10824;51.632;4.950;2023-04-19T04:18:12;10.00;57.50
21331;DHT22;10824;51.632;4.950;2023-04-19T04:20:39;10.00;57.70
21331;DHT22;10824;51.632;4.950;2023-04-19T04:23:09;10.00;57.40
21331;DHT22;10824;51.632;4.950;2023-04-19T04:25:40;10.00;57.80
21331;DHT22;10824;51.632;4.950;2023-04-19T04:28:11;10.00;57.70
21331;DHT22;10824;51.632;4.950;2023-04-19T04:30:40;10.00;57.10
21331;DHT22;10824;51.632;4.950;2023-04-19T04:33:09;10.00;57.20
21331;DHT22;10824;51.632;4.950;2023-04-19T04:35:40;10.00;57.00
21331;DHT22;10824;51.632;4.950;2023-04-19T04:38:12;10.00;56.60
21331;DHT22;10824;51.632;4.950;2023-04-19T04:40:52;10.00;56.10
21331;DHT22;10824;51.632;4.950;2023-04-19T04:43:23;10.00;55.30
21331;DHT22;10824;51.632;4.950;2023-04-19T04:45:51;10.00;55.40
21331;DHT22;10824;51.632;4.950;2023-04-19T04:48:22;10.00;54.80
21331;DHT22;10824;51.632;4.950;2023-04-19T04:50:50;10.00;54.90
21331;DHT22;10824;51.632;4.950;2023-04-19T04:53:17;10.00;55.30
21331;DHT22;10824;51.632;4.950;2023-04-19T04:55:45;10.00;55.30
21331;DHT22;10824;51.632;4.950;2023-04-19T04:58:13;9.90;54.80
21331;DHT22;10824;51.632;4.950;2023-04-19T05:01:02;9.90;54.80
21331;DHT22;10824;51.632;4.950;2023-04-19T05:03:34;9.90;54.80
21331;DHT22;10824;51.632;4.950;2023-04-19T05:06:04;9.90;54.60
21331;DHT22;10824;51.632;4.950;2023-04-19T05:08:31;9.80;54.70
21331;DHT22;10824;51.632;4.950;2023-04-19T05:11:13;9.80;54.30
21331;DHT22;10824;51.632;4.950;2023-04-19T05:13:41;9.70;53.40
21331;DHT22;10824;51.632;4.950;2023-04-19T05:16:08;9.70;53.60
21331;DHT22;10824;51.632;4.950;2023-04-19T05:18:35;9.70;54.00
21331;DHT22;10824;51.632;4.950;2023-04-19T05:21:03;9.60;53.40
21331;DHT22;10824;51.632;4.950;2023-04-19T05:23:31;9.60;53.80
21331;DHT22;10824;51.632;4.950;2023-04-19T05:25:58;9.60;54.40
21331;DHT22;10824;51.632;4.950;2023-04-19T05:28:27;9.60;53.70
21331;DHT22;10824;51.632;4.950;2023-04-19T05:31:05;9.60;53.50
21331;DHT22;10824;51.632;4.950;2023-04-19T05:33:39;9.60;53.40
21331;DHT22;10824;51.632;4.950;2023-04-19T05:36:08;9.60;53.70
21331;DHT22;10824;51.632;4.950;2023-04-19T05:38:35;9.60;53.80
21331;DHT22;10824;51.632;4.950;2023-04-19T05:41:05;9.60;53.70
21331;DHT22;10824;51.632;4.950;2023-04-19T05:43:32;9.60;54.00
21331;DHT22;10824;51.632;4.950;2023-04-19T05:46:00;9.60;53.80
21331;DHT22;10824;51.632;4.950;2023-04-19T05:48:28;9.60;53.70
21331;DHT22;10824;51.632;4.950;2023-04-19T05:51:14;9.70;53.40
21331;DHT22;10824;51.632;4.950;2023-04-19T05:53:54;9.80;52.60
21331;DHT22;10824;51.632;4.950;2023-04-19T05:56:24;10.00;50.20
21331;DHT22;10824;51.632;4.950;2023-04-19T05:58:51;9.90;49.70
21331;DHT22;10824;51.632;4.950;2023-04-19T06:01:18;9.80;50.30
21331;DHT22;10824;51.632;4.950;2023-04-19T06:03:45;9.80;50.60
21331;DHT22;10824;51.632;4.950;2023-04-19T06:06:13;9.80;50.70
21331;DHT22;10824;51.632;4.950;2023-04-19T06:08:40;10.00;48.90
21331;DHT22;10824;51.632;4.950;2023-04-19T06:11:09;10.20;46.30
21331;DHT22;10824;51.632;4.950;2023-04-19T06:13:52;10.20;45.20
21331;DHT22;10824;51.632;4.950;2023-04-19T06:16:20;10.20;44.10
21331;DHT22;10824;51.632;4.950;2023-04-19T06:18:47;10.20;43.10
21331;DHT22;10824;51.632;4.950;2023-04-19T06:21:15;10.20;43.30
21331;DHT22;10824;51.632;4.950;2023-04-19T06:23:43;10.20;41.90
21331;DHT22;10824;51.632;4.950;2023-04-19T06:26:10;10.30;41.10
21331;DHT22;10824;51.632;4.950;2023-04-19T06:28:37;10.30;41.30
21331;DHT22;10824;51.632;4.950;2023-04-19T06:31:04;10.20;39.60
21331;DHT22;10824;51.632;4.950;2023-04-19T06:33:31;10.20;39.40
21331;DHT22;10824;51.632;4.950;2023-04-19T06:35:58;10.10;38.80
21331;DHT22;10824;51.632;4.950;2023-04-19T06:38:25;10.10;38.50
21331;DHT22;10824;51.632;4.950;2023-04-19T06:40:52;10.10;37.50
21331;DHT22;10824;51.632;4.950;2023-04-19T06:43:19;10.10;37.50
21331;DHT22;10824;51.632;4.950;2023-04-19T06:45:47;10.10;36.60
21331;DHT22;10824;51.632;4.950;2023-04-19T06:48:15;10.10;36.30
21331;DHT22;10824;51.632;4.950;2023-04-19T06:50:42;10.20;35.70
21331;DHT22;10824;51.632;4.950;2023-04-19T06:53:09;10.30;35.40
21331;DHT22;10824;51.632;4.950;2023-04-19T06:55:36;10.50;34.90
21331;DHT22;10824;51.632;4.950;2023-04-19T06:58:03;10.50;33.70
21331;DHT22;10824;51.632;4.950;2023-04-19T07:00:30;10.60;33.10
21331;DHT22;10824;51.632;4.950;2023-04-19T07:02:57;10.70;33.30
21331;DHT22;10824;51.632;4.950;2023-04-19T07:05:26;10.80;32.70
21331;DHT22;10824;51.632;4.950;2023-04-19T07:07:53;10.90;31.80
21331;DHT22;10824;51.632;4.950;2023-04-19T07:10:20;10.90;30.40
21331;DHT22;10824;51.632;4.950;2023-04-19T07:12:47;11.00;28.60
21331;DHT22;10824;51.632;4.950;2023-04-19T07:15:14;11.00;27.70
21331;DHT22;10824;51.632;4.950;2023-04-19T07:17:41;11.10;27.70
21331;DHT22;10824;51.632;4.950;2023-04-19T07:20:08;11.20;25.50
21331;DHT22;10824;51.632;4.950;2023-04-19T07:22:36;11.10;24.20
21331;DHT22;10824;51.632;4.950;2023-04-19T07:25:03;11.20;22.00
21331;DHT22;10824;51.632;4.950;2023-04-19T07:27:30;11.20;22.00
21331;DHT22;10824;51.632;4.950;2023-04-19T07:29:57;11.30;22.80
21331;DHT22;10824;51.632;4.950;2023-04-19T07:32:24;11.50;21.10
21331;DHT22;10824;51.632;4.950;2023-04-19T07:34:51;11.50;18.80
21331;DHT22;10824;51.632;4.950;2023-04-19T07:37:18;11.50;19.00
21331;DHT22;10824;51.632;4.950;2023-04-19T07:39:46;11.70;18.10
21331;DHT22;10824;51.632;4.950;2023-04-19T07:42:13;11.70;17.60
21331;DHT22;10824;51.632;4.950;2023-04-19T07:44:40;11.70;15.50
21331;DHT22;10824;51.632;4.950;2023-04-19T07:47:07;11.80;15.90
21331;DHT22;10824;51.632;4.950;2023-04-19T07:49:34;11.90;15.70
21331;DHT22;10824;51.632;4.950;2023-04-19T07:52:01;12.00;14.90
21331;DHT22;10824;51.632;4.950;2023-04-19T07:54:28;11.90;13.70
21331;DHT22;10824;51.632;4.950;2023-04-19T07:56:56;12.10;14.40
21331;DHT22;10824;51.632;4.950;2023-04-19T07:59:24;12.20;13.70
21331;DHT22;10824;51.632;4.950;2023-04-19T08:01:52;12.20;11.80
21331;DHT22;10824;51.632;4.950;2023-04-19T08:04:19;12.20;11.50
21331;DHT22;10824;51.632;4.950;2023-04-19T08:06:49;12.40;11.60
21331;DHT22;10824;51.632;4.950;2023-04-19T08:09:16;12.50;12.60
21331;DHT22;10824;51.632;4.950;2023-04-19T08:11:43;12.60;11.90
21331;DHT22;10824;51.632;4.950;2023-04-19T08:14:10;12.60;8.40
21331;DHT22;10824;51.632;4.950;2023-04-19T08:16:57;12.60;8.70
21331;DHT22;10824;51.632;4.950;2023-04-19T08:19:44;12.50;6.30
21331;DHT22;10824;51.632;4.950;2023-04-19T08:22:11;12.60;6.00
21331;DHT22;10824;51.632;4.950;2023-04-19T08:24:40;12.80;5.30
21331;DHT22;10824;51.632;4.950;2023-04-19T08:27:08;12.70;4.00
21331;DHT22;10824;51.632;4.950;2023-04-19T08:29:35;12.80;4.80
21331;DHT22;10824;51.632;4.950;2023-04-19T08:32:03;12.90;2.80
21331;DHT22;10824;51.632;4.950;2023-04-19T08:34:33;13.10;3.60
21331;DHT22;10824;51.632;4.950;2023-04-19T08:37:00;13.10;2.00
21331;DHT22;10824;51.632;4.950;2023-04-19T08:39:31;13.10;1.80
21331;DHT22;10824;51.632;4.950;2023-04-19T08:42:04;13.20;1.60
21331;DHT22;10824;51.632;4.950;2023-04-19T08:44:50;13.30;1.20
21331;DHT22;10824;51.632;4.950;2023-04-19T08:47:21;13.30;1.00
21331;DHT22;10824;51.632;4.950;2023-04-19T08:50:03;13.40;1.00
21331;DHT22;10824;51.632;4.950;2023-04-19T08:52:46;13.30;1.00
21331;DHT22;10824;51.632;4.950;2023-04-19T08:55:25;13.50;1.00
21331;DHT22;10824;51.632;4.950;2023-04-19T08:57:52;13.50;1.00
21331;DHT22;10824;51.632;4.950;2023-04-19T09:00:19;13.70;1.00
21331;DHT22;10824;51.632;4.950;2023-04-19T09:02:51;13.70;1.00
21331;DHT22;10824;51.632;4.950;2023-04-19T09:05:19;13.80;1.00
21331;DHT22;10824;51.632;4.950;2023-04-19T09:07:47;13.90;1.00
21331;DHT22;10824;51.632;4.950;2023-04-19T09:10:18;13.80;1.00
21331;DHT22;10824;51.632;4.950;2023-04-19T09:13:02;13.80;1.00
21331;DHT22;10824;51.632;4.950;2023-04-19T09:15:40;13.80;1.00
21331;DHT22;10824;51.632;4.950;2023-04-19T09:18:10;14.00;1.00
21331;DHT22;10824;51.632;4.950;2023-04-19T09:20:41;14.20;1.00
21331;DHT22;10824;51.632;4.950;2023-04-19T09:23:12;14.00;1.00
21331;DHT22;10824;51.632;4.950;2023-04-19T09:25:55;14.30;1.00
21331;DHT22;10824;51.632;4.950;2023-04-19T09:28:30;14.20;1.00
21331;DHT22;10824;51.632;4.950;2023-04-19T09:30:57;14.10;1.00
21331;DHT22;10824;51.632;4.950;2023-04-19T09:33:41;14.20;1.00
21331;DHT22;10824;51.632;4.950;2023-04-19T09:36:10;14.20;1.00
21331;DHT22;10824;51.632;4.950;2023-04-19T09:38:47;14.10;1.00
21331;DHT22;10824;51.632;4.950;2023-04-19T09:41:16;14.30;1.00
21331;DHT22;10824;51.632;4.950;2023-04-19T09:43:44;14.30;1.00
21331;DHT22;10824;51.632;4.950;2023-04-19T09:46:32;14.70;1.00
21331;DHT22;10824;51.632;4.950;2023-04-19T09:49:15;14.60;1.00
21331;DHT22;10824;51.632;4.950;2023-04-19T09:52:02;14.60;1.00
21331;DHT22;10824;51.632;4.950;2023-04-19T09:54:31;14.60;1.00
21331;DHT22;10824;51.632;4.950;2023-04-19T09:57:00;14.40;1.00
21331;DHT22;10824;51.632;4.950;2023-04-19T09:59:29;14.70;1.00
21331;DHT22;10824;51.632;4.950;2023-04-19T10:01:59;14.90;1.00
21331;DHT22;10824;51.632;4.950;2023-04-19T10:04:28;14.80;1.00
21331;DHT22;10824;51.632;4.950;2023-04-19T10:07:15;14.50;1.00
21331;DHT22;10824;51.632;4.950;2023-04-19T10:09:46;14.40;1.00
21331;DHT22;10824;51.632;4.950;2023-04-19T10:12:23;14.50;1.00
21331;DHT22;10824;51.632;4.950;2023-04-19T10:14:57;14.60;1.00
21331;DHT22;10824;51.632;4.950;2023-04-19T10:17:24;14.60;1.00
21331;DHT22;10824;51.632;4.950;2023-04-19T10:19:58;14.50;1.00
21331;DHT22;10824;51.632;4.950;2023-04-19T10:22:27;14.30;1.00
21331;DHT22;10824;51.632;4.950;2023-04-19T10:27:36;14.70;1.00
21331;DHT22;10824;51.632;4.950;2023-04-19T10:30:03;14.50;1.00
21331;DHT22;10824;51.632;4.950;2023-04-19T10:32:43;14.40;1.00
21331;DHT22;10824;51.632;4.950;2023-04-19T10:43:18;14.90;1.00
21331;DHT22;10824;51.632;4.950;2023-04-19T10:45:47;15.20;1.00
21331;DHT22;10824;51.632;4.950;2023-04-19T10:51:00;15.10;1.00
21331;DHT22;10824;51.632;4.950;2023-04-19T10:56:12;15.00;1.00
21331;DHT22;10824;51.632;4.950;2023-04-19T11:01:38;15.20;1.00
21331;DHT22;10824;51.632;4.950;2023-04-19T11:04:07;15.10;1.00
21331;DHT22;10824;51.632;4.950;2023-04-19T11:06:56;14.90;1.00
21331;DHT22;10824;51.632;4.950;2023-04-19T11:09:30;15.20;1.00
21331;DHT22;10824;51.632;4.950;2023-04-19T11:12:10;15.20;1.00
21331;DHT22;10824;51.632;4.950;2023-04-19T11:14:39;15.00;1.00
21331;DHT22;10824;51.632;4.950;2023-04-19T11:17:27;15.30;1.00
21331;DHT22;10824;51.632;4.950;2023-04-19T11:20:01;15.50;1.00
21331;DHT22;10824;51.632;4.950;2023-04-19T11:22:33;15.30;1.00
21331;DHT22;10824;51.632;4.950;2023-04-19T11:25:06;15.20;1.00
21331;DHT22;10824;51.632;4.950;2023-04-19T11:27:33;14.90;1.00
21331;DHT22;10824;51.632;4.950;2023-04-19T11:30:05;15.50;1.00
21331;DHT22;10824;51.632;4.950;2023-04-19T11:32:33;15.40;1.00
21331;DHT22;10824;51.632;4.950;2023-04-19T11:35:07;15.20;1.00
21331;DHT22;10824;51.632;4.950;2023-04-19T11:37:37;15.00;1.00
21331;DHT22;10824;51.632;4.950;2023-04-19T11:40:07;15.10;1.00
21331;DHT22;10824;51.632;4.950;2023-04-19T11:42:35;15.10;1.00
21331;DHT22;10824;51.632;4.950;2023-04-19T11:45:02;15.10;1.00
21331;DHT22;10824;51.632;4.950;2023-04-19T11:47:29;15.30;1.00
21331;DHT22;10824;51.632;4.950;2023-04-19T11:53:29;15.50;1.00
21331;DHT22;10824;51.632;4.950;2023-04-19T11:56:07;15.40;1.00
21331;DHT22;10824;51.632;4.950;2023-04-19T11:58:41;15.40;1.00
21331;DHT22;10824;51.632;4.950;2023-04-19T12:01:12;15.70;1.00
21331;DHT22;10824;51.632;4.950;2023-04-19T12:06:15;15.50;1.00
21331;DHT22;10824;51.632;4.950;2023-04-19T12:08:45;15.50;1.00
21331;DHT22;10824;51.632;4.950;2023-04-19T12:11:20;15.50;1.00
21331;DHT22;10824;51.632;4.950;2023-04-19T12:13:48;15.70;1.00
21331;DHT22;10824;51.632;4.950;2023-04-19T12:16:26;15.70;1.00
21331;DHT22;10824;51.632;4.950;2023-04-19T12:18:54;15.80;1.00
21331;DHT22;10824;51.632;4.950;2023-04-19T12:21:27;15.90;1.00
21331;DHT22;10824;51.632;4.950;2023-04-19T12:23:59;16.00;1.00
21331;DHT22;10824;51.632;4.950;2023-04-19T12:26:28;15.90;1.00
21331;DHT22;10824;51.632;4.950;2023-04-19T12:28:56;15.90;1.00
21331;DHT22;10824;51.632;4.950;2023-04-19T12:31:24;15.90;1.00
21331;DHT22;10824;51.632;4.950;2023-04-19T12:33:52;15.80;1.00
21331;DHT22;10824;51.632;4.950;2023-04-19T12:36:19;16.00;1.00
21331;DHT22;10824;51.632;4.950;2023-04-19T12:38:46;16.40;1.00
21331;DHT22;10824;51.632;4.950;2023-04-19T12:41:14;16.40;1.00
21331;DHT22;10824;51.632;4.950;2023-04-19T12:43:41;16.20;1.00
21331;DHT22;10824;51.632;4.950;2023-04-19T12:46:10;16.40;1.00
21331;DHT22;10824;51.632;4.950;2023-04-19T12:48:37;16.50;1.00
21331;DHT22;10824;51.632;4.950;2023-04-19T12:51:04;16.40;1.00
21331;DHT22;10824;51.632;4.950;2023-04-19T12:53:32;16.30;1.00
21331;DHT22;10824;51.632;4.950;2023-04-19T12:55:59;16.40;1.00
21331;DHT22;10824;51.632;4.950;2023-04-19T12:58:26;16.10;1.00
21331;DHT22;10824;51.632;4.950;2023-04-19T13:00:57;16.40;1.00
21331;DHT22;10824;51.632;4.950;2023-04-19T13:03:24;16.50;1.00
21331;DHT22;10824;51.632;4.950;2023-04-19T13:05:55;16.50;1.00
21331;DHT22;10824;51.632;4.950;2023-04-19T13:08:23;16.40;1.00
21331;DHT22;10824;51.632;4.950;2023-04-19T13:11:12;16.40;1.00
21331;DHT22;10824;51.632;4.950;2023-04-19T13:13:40;16.90;1.00
21331;DHT22;10824;51.632;4.950;2023-04-19T13:16:07;16.70;1.00
21331;DHT22;10824;51.632;4.950;2023-04-19T13:18:34;16.80;1.00
21331;DHT22;10824;51.632;4.950;2023-04-19T13:21:02;16.60;1.00
21331;DHT22;10824;51.632;4.950;2023-04-19T13:23:37;16.70;1.00
21331;DHT22;10824;51.632;4.950;2023-04-19T13:26:08;16.60;1.00
21331;DHT22;10824;51.632;4.950;2023-04-19T13:28:35;16.70;1.00
21331;DHT22;10824;51.632;4.950;2023-04-19T13:31:04;17.00;1.00
21331;DHT22;10824;51.632;4.950;2023-04-19T13:33:31;17.10;1.00
21331;DHT22;10824;51.632;4.950;2023-04-19T13:36:01;16.90;1.00
21331;DHT22;10824;51.632;4.950;2023-04-19T13:38:29;17.10;1.00
21331;DHT22;10824;51.632;4.950;2023-04-19T13:40:59;17.20;1.00
21331;DHT22;10824;51.632;4.950;2023-04-19T13:43:27;17.10;1.00
21331;DHT22;10824;51.632;4.950;2023-04-19T13:45:55;17.00;1.00
21331;DHT22;10824;51.632;4.950;2023-04-19T13:48:25;17.10;1.00
21331;DHT22;10824;51.632;4.950;2023-04-19T13:50:55;16.80;1.00
21331;DHT22;10824;51.632;4.950;2023-04-19T13:53:32;16.80;1.00
21331;DHT22;10824;51.632;4.950;2023-04-19T13:56:00;16.90;1.00
21331;DHT22;10824;51.632;4.950;2023-04-19T13:58:30;16.60;1.00
21331;DHT22;10824;51.632;4.950;2023-04-19T14:01:03;16.90;1.00
21331;DHT22;10824;51.632;4.950;2023-04-19T14:03:31;17.10;1.00
21331;DHT22;10824;51.632;4.950;2023-04-19T14:06:00;17.00;1.00
21331;DHT22;10824;51.632;4.950;2023-04-19T14:08:27;17.20;1.00
21331;DHT22;10824;51.632;4.950;2023-04-19T14:10:54;16.70;1.00
21331;DHT22;10824;51.632;4.950;2023-04-19T14:13:21;17.00;1.00
21331;DHT22;10824;51.632;4.950;2023-04-19T14:15:48;17.10;1.00
21331;DHT22;10824;51.632;4.950;2023-04-19T14:18:15;17.10;1.00
21331;DHT22;10824;51.632;4.950;2023-04-19T14:20:42;17.20;1.00
21331;DHT22;10824;51.632;4.950;2023-04-19T14:23:10;17.10;1.00
21331;DHT22;10824;51.632;4.950;2023-04-19T14:25:37;17.10;1.00
21331;DHT22;10824;51.632;4.950;2023-04-19T14:28:04;17.00;1.00
21331;DHT22;10824;51.632;4.950;2023-04-19T14:30:31;17.00;1.00
21331;DHT22;10824;51.632;4.950;2023-04-19T14:32:58;17.00;1.00
21331;DHT22;10824;51.632;4.950;2023-04-19T14:35:25;16.90;1.00
21331;DHT22;10824;51.632;4.950;2023-04-19T14:37:53;17.00;1.00
21331;DHT22;10824;51.632;4.950;2023-04-19T14:40:20;16.80;1.00
21331;DHT22;10824;51.632;4.950;2023-04-19T14:42:47;16.80;1.00
21331;DHT22;10824;51.632;4.950;2023-04-19T14:45:14;17.20;1.00
21331;DHT22;10824;51.632;4.950;2023-04-19T14:47:41;17.10;1.00
21331;DHT22;10824;51.632;4.950;2023-04-19T14:50:09;17.10;1.00
21331;DHT22;10824;51.632;4.950;2023-04-19T14:52:36;17.10;1.00
21331;DHT22;10824;51.632;4.950;2023-04-19T14:55:03;17.30;1.00
21331;DHT22;10824;51.632;4.950;2023-04-19T14:57:39;17.20;1.00
21331;DHT22;10824;51.632;4.950;2023-04-19T15:00:08;17.20;1.00
21331;DHT22;10824;51.632;4.950;2023-04-19T15:02:35;16.90;1.00
21331;DHT22;10824;51.632;4.950;2023-04-19T15:05:03;16.90;1.00
21331;DHT22;10824;51.632;4.950;2023-04-19T15:07:34;16.80;1.00
21331;DHT22;10824;51.632;4.950;2023-04-19T15:10:01;16.90;1.00
21331;DHT22;10824;51.632;4.950;2023-04-19T15:12:28;17.00;1.00
21331;DHT22;10824;51.632;4.950;2023-04-19T15:14:55;16.90;1.00
21331;DHT22;10824;51.632;4.950;2023-04-19T15:17:25;17.00;1.00
21331;DHT22;10824;51.632;4.950;2023-04-19T15:19:52;16.90;1.00
21331;DHT22;10824;51.632;4.950;2023-04-19T15:22:19;17.10;1.00
21331;DHT22;10824;51.632;4.950;2023-04-19T15:24:46;17.20;1.00
21331;DHT22;10824;51.632;4.950;2023-04-19T15:27:13;16.90;1.00
21331;DHT22;10824;51.632;4.950;2023-04-19T15:29:40;17.10;1.00
21331;DHT22;10824;51.632;4.950;2023-04-19T15:32:07;17.30;1.00
21331;DHT22;10824;51.632;4.950;2023-04-19T15:34:34;17.20;1.00
21331;DHT22;10824;51.632;4.950;2023-04-19T15:37:02;17.20;1.00
21331;DHT22;10824;51.632;4.950;2023-04-19T15:39:31;17.10;1.00
21331;DHT22;10824;51.632;4.950;2023-04-19T15:41:58;17.40;1.00
21331;DHT22;10824;51.632;4.950;2023-04-19T15:44:26;17.20;1.00
21331;DHT22;10824;51.632;4.950;2023-04-19T15:46:53;17.10;1.00
21331;DHT22;10824;51.632;4.950;2023-04-19T15:49:20;17.10;1.00
21331;DHT22;10824;51.632;4.950;2023-04-19T15:51:47;17.50;1.00
21331;DHT22;10824;51.632;4.950;2023-04-19T15:54:14;17.80;1.00
21331;DHT22;10824;51.632;4.950;2023-04-19T15:56:41;17.70;1.00
21331;DHT22;10824;51.632;4.950;2023-04-19T15:59:08;17.30;1.00
21331;DHT22;10824;51.632;4.950;2023-04-19T16:01:35;17.20;1.00
21331;DHT22;10824;51.632;4.950;2023-04-19T16:04:02;17.30;1.00
21331;DHT22;10824;51.632;4.950;2023-04-19T16:06:30;17.20;1.00
21331;DHT22;10824;51.632;4.950;2023-04-19T16:08:57;17.00;1.00
21331;DHT22;10824;51.632;4.950;2023-04-19T16:11:24;17.00;1.00
21331;DHT22;10824;51.632;4.950;2023-04-19T16:13:52;17.00;1.00
21331;DHT22;10824;51.632;4.950;2023-04-19T16:16:19;16.90;1.00
21331;DHT22;10824;51.632;4.950;2023-04-19T16:18:46;16.90;1.00